TimeCDT,TemperatureF,Dew PointF,Humidity,Sea Level PressureIn,VisibilityMPH,Wind Direction,Wind SpeedMPH,Gust SpeedMPH,PrecipitationIn,Events,Conditions,WindDirDegrees,DateUTC
12:54 AM,59.0,43.0,55,30.01,10.0,SSE,4.6,-,N/A,,Clear,160,2013-05-13 05:54:00
1:54 AM,57.9,44.1,60,30.01,10.0,South,4.6,-,N/A,,Clear,170,2013-05-13 06:54:00
2:54 AM,55.0,44.1,67,30.00,10.0,SW,4.6,-,N/A,,Clear,220,2013-05-13 07:54:00
3:54 AM,53.1,44.1,71,29.99,10.0,West,8.1,-,N/A,,Clear,260,2013-05-13 08:54:00
4:54 AM,53.1,42.1,66,29.99,10.0,WNW,6.9,-,N/A,,Clear,300,2013-05-13 09:54:00
5:54 AM,55.0,39.9,57,29.99,10.0,NW,8.1,-,N/A,,Clear,320,2013-05-13 10:54:00
6:54 AM,51.1,41.0,68,30.00,10.0,NW,3.5,-,N/A,,Clear,320,2013-05-13 11:54:00
7:54 AM,57.9,44.1,60,30.01,10.0,West,3.5,-,N/A,,Clear,280,2013-05-13 12:54:00
8:54 AM,64.9,43.0,45,30.01,10.0,West,6.9,-,N/A,,Clear,270,2013-05-13 13:54:00
9:54 AM,75.0,39.9,28,30.01,10.0,SW,9.2,-,N/A,,Clear,220,2013-05-13 14:54:00
10:54 AM,81.0,39.0,22,30.00,10.0,SSW,8.1,-,N/A,,Clear,210,2013-05-13 15:54:00
11:54 AM,84.9,35.1,17,30.00,10.0,SW,10.4,-,N/A,,Clear,220,2013-05-13 16:54:00
12:54 PM,89.1,33.1,14,29.98,10.0,SW,10.4,-,N/A,,Clear,220,2013-05-13 17:54:00
1:54 PM,91.0,33.1,13,29.95,10.0,SW,13.8,18.4,N/A,,Clear,220,2013-05-13 18:54:00
3:54 PM,93.0,32.0,12,29.92,10.0,South,12.7,-,N/A,,Clear,190,2013-05-13 20:54:00
4:54 PM,91.9,30.0,11,29.90,10.0,WSW,10.4,-,N/A,,Clear,240,2013-05-13 21:54:00
5:54 PM,91.9,28.9,11,29.88,10.0,SW,8.1,-,N/A,,Clear,230,2013-05-13 22:54:00
6:54 PM,89.6,35.6,15,29.96,10.0,South,12.7,-,N/A,,Clear,190,2013-05-13 23:54:00
7:54 PM,84.9,37.9,19,29.87,10.0,South,9.2,-,N/A,,Clear,180,2013-05-14 00:54:00
8:54 PM,78.1,39.9,25,29.88,10.0,SSE,5.8,-,N/A,,Clear,160,2013-05-14 01:54:00
9:54 PM,72.0,39.0,30,29.88,10.0,SSE,4.6,-,N/A,,Clear,160,2013-05-14 02:54:00
10:54 PM,70.0,37.9,31,29.88,10.0,SSE,8.1,-,N/A,,Clear,160,2013-05-14 03:54:00
11:54 PM,69.1,36.0,30,29.88,10.0,SSE,9.2,-,N/A,,Clear,160,2013-05-14 04:54:00